Time;durP1;ratioP1;P1;durP2;ratioP2;P2;SDS_P1;SDS_P2;PMS_P1;PMS_P2;Temp;Humidity;BMP_temperature;BMP_pressure;BME280_temperature;BME280_humidity;BME280_pressure;Samples;Min_cycle;Max_cycle;Signal;HPM_P1;HPM_P2
2021/04/06 00:01:57;;;;;;;3.80;1.40;;;1.00;99.90;;;;;;5061992;28;20516;-70
2021/04/06 00:04:47;;;;;;;6.72;1.65;;;0.90;99.90;;;;;;5060412;28;20219;-70
2021/04/06 00:07:34;;;;;;;2.92;1.80;;;0.90;99.90;;;;;;5063577;28;20572;-70
2021/04/06 00:10:23;;;;;;;9.15;1.75;;;0.80;99.90;;;;;;5059853;28;20340;-70
2021/04/06 00:13:09;;;;;;;7.30;1.60;;;0.70;99.90;;;;;;5059904;28;20295;-69
2021/04/06 00:15:55;;;;;;;6.10;2.25;;;0.70;99.90;;;;;;5066211;28;20204;-71
2021/04/06 00:18:41;;;;;;;4.88;1.42;;;0.70;99.90;;;;;;5064160;28;20554;-71
2021/04/06 00:21:27;;;;;;;4.07;1.67;;;0.80;99.90;;;;;;5057679;28;20237;-70
2021/04/06 00:24:14;;;;;;;6.78;1.48;;;0.90;99.90;;;;;;5056456;28;20743;-71
2021/04/06 00:27:09;;;;;;;2.63;1.67;;;0.90;99.90;;;;;;5056144;28;20205;-70
2021/04/06 00:29:57;;;;;;;4.03;1.77;;;0.90;99.90;;;;;;5059648;28;20228;-71
2021/04/06 00:32:44;;;;;;;5.70;1.80;;;0.90;99.90;;;;;;5061170;28;20372;-71
2021/04/06 00:35:31;;;;;;;8.48;1.73;;;1.00;99.90;;;;;;5059920;28;20226;-70
2021/04/06 00:38:18;;;;;;;9.57;2.17;;;0.90;99.90;;;;;;5059148;28;20248;-71
2021/04/06 00:41:06;;;;;;;11.27;2.25;;;1.10;99.90;;;;;;5063037;28;20275;-71
2021/04/06 00:43:52;;;;;;;4.10;1.80;;;1.10;99.90;;;;;;5060546;28;20525;-71
2021/04/06 00:46:38;;;;;;;4.13;1.65;;;1.20;99.90;;;;;;5057409;28;20208;-71
2021/04/06 00:49:24;;;;;;;4.60;1.73;;;1.00;99.90;;;;;;5058550;28;20555;-71
2021/04/06 00:52:11;;;;;;;7.93;2.28;;;1.10;99.90;;;;;;5061778;28;20204;-71
2021/04/06 00:54:57;;;;;;;9.82;2.33;;;1.20;99.90;;;;;;5059123;28;20288;-70
2021/04/06 00:57:44;;;;;;;8.63;2.00;;;1.30;99.90;;;;;;5066548;28;20335;-70
2021/04/06 01:00:30;;;;;;;9.00;1.90;;;1.30;99.90;;;;;;5063506;28;20228;-71
2021/04/06 01:03:18;;;;;;;6.35;1.90;;;1.50;99.90;;;;;;5062275;28;20271;-71
2021/04/06 01:06:07;;;;;;;6.68;2.20;;;1.60;99.90;;;;;;5054873;28;20263;-70
2021/04/06 01:08:53;;;;;;;9.15;2.25;;;1.40;99.90;;;;;;5060367;28;20246;-70
2021/04/06 01:11:40;;;;;;;3.50;1.58;;;1.40;99.90;;;;;;5065430;28;20254;-69
2021/04/06 01:14:25;;;;;;;6.35;2.20;;;1.50;99.90;;;;;;5058731;28;20239;-70
2021/04/06 01:17:12;;;;;;;6.45;2.10;;;1.40;99.90;;;;;;5060992;28;20199;-70
2021/04/06 01:20:04;;;;;;;7.75;2.20;;;1.40;99.90;;;;;;5061246;28;20223;-71
2021/04/06 01:22:54;;;;;;;10.02;2.38;;;1.50;99.90;;;;;;5058894;28;20239;-68
2021/04/06 01:25:45;;;;;;;9.88;3.10;;;1.40;99.90;;;;;;5060891;28;20720;-71
2021/04/06 01:28:31;;;;;;;7.45;2.97;;;1.50;99.90;;;;;;5061560;28;20197;-70
2021/04/06 01:31:16;;;;;;;9.55;2.60;;;1.70;99.90;;;;;;5062696;28;20260;-71
2021/04/06 01:34:02;;;;;;;6.57;2.30;;;1.60;99.90;;;;;;5058239;28;20299;-70
2021/04/06 01:36:48;;;;;;;5.70;2.40;;;1.70;99.90;;;;;;5057218;28;20203;-71
2021/04/06 01:39:34;;;;;;;10.75;1.98;;;1.70;99.90;;;;;;5057064;28;20232;-71
2021/04/06 01:42:23;;;;;;;5.80;2.40;;;1.70;99.90;;;;;;5063051;28;20260;-71
2021/04/06 01:45:11;;;;;;;14.18;2.15;;;1.80;99.90;;;;;;5062779;28;20203;-70
2021/04/06 01:47:56;;;;;;;7.85;1.98;;;1.80;99.90;;;;;;5062359;28;20204;-70
2021/04/06 01:50:41;;;;;;;14.38;2.85;;;1.60;99.90;;;;;;5059046;28;20244;-69
2021/04/06 01:53:27;;;;;;;11.27;2.20;;;1.80;99.90;;;;;;5062463;28;20259;-70
2021/04/06 01:56:15;;;;;;;7.53;2.33;;;1.90;99.90;;;;;;5059572;28;20251;-71
2021/04/06 01:59:05;;;;;;;9.38;2.50;;;2.00;99.90;;;;;;5059309;28;20216;-70
2021/04/06 02:01:52;;;;;;;10.82;2.20;;;2.00;99.90;;;;;;5066326;28;20759;-70
2021/04/06 02:04:40;;;;;;;7.53;1.60;;;1.90;99.90;;;;;;5057507;28;20246;-70
2021/04/06 02:07:28;;;;;;;8.68;2.15;;;1.80;99.90;;;;;;5061413;28;20764;-70
2021/04/06 02:10:14;;;;;;;7.75;2.40;;;1.80;99.90;;;;;;5055606;28;20602;-70
2021/04/06 02:13:07;;;;;;;9.40;2.65;;;1.80;99.90;;;;;;5061305;28;20247;-69
2021/04/06 02:15:58;;;;;;;7.10;2.58;;;1.90;99.90;;;;;;5060666;28;20208;-70
2021/04/06 02:18:43;;;;;;;5.50;2.05;;;1.90;99.90;;;;;;5055529;28;20271;-70
2021/04/06 02:21:28;;;;;;;8.02;2.55;;;1.80;99.90;;;;;;5056182;28;20240;-70
2021/04/06 02:24:25;;;;;;;6.60;2.00;;;1.80;99.90;;;;;;5064084;28;20224;-74
2021/04/06 02:27:15;;;;;;;6.47;2.42;;;1.70;99.90;;;;;;5054387;28;20244;-71
2021/04/06 02:30:02;;;;;;;10.52;2.25;;;1.60;99.90;;;;;;5062648;28;20216;-70
2021/04/06 02:32:48;;;;;;;9.55;2.20;;;1.60;99.90;;;;;;5054691;28;20232;-70
2021/04/06 02:35:33;;;;;;;6.05;2.08;;;1.70;99.90;;;;;;5062197;28;20227;-71
2021/04/06 02:38:18;;;;;;;5.13;2.05;;;1.60;99.90;;;;;;5059425;28;20698;-71
2021/04/06 02:41:08;;;;;;;4.85;2.00;;;1.80;99.90;;;;;;5059068;28;20232;-73
2021/04/06 02:43:54;;;;;;;11.85;1.98;;;1.80;99.90;;;;;;5065855;28;20316;-71
2021/04/06 02:46:41;;;;;;;7.15;1.95;;;1.80;99.90;;;;;;5064273;28;20283;-71
2021/04/06 02:49:28;;;;;;;9.57;2.10;;;1.80;99.90;;;;;;5060741;28;20247;-71
2021/04/06 02:52:15;;;;;;;13.00;4.57;;;1.90;99.90;;;;;;5063717;28;20254;-71
2021/04/06 02:55:01;;;;;;;7.00;2.08;;;1.80;99.90;;;;;;5062885;28;20200;-71
2021/04/06 02:57:48;;;;;;;7.90;2.53;;;1.80;99.90;;;;;;5061216;28;20208;-71
2021/04/06 03:00:34;;;;;;;5.20;2.10;;;1.70;99.90;;;;;;5055144;28;20220;-69
2021/04/06 03:03:21;;;;;;;8.70;2.78;;;1.70;99.90;;;;;;5065331;28;20278;-71
2021/04/06 03:06:09;;;;;;;12.68;3.63;;;1.70;99.90;;;;;;5065846;28;20207;-71
2021/04/06 03:08:59;;;;;;;6.35;2.08;;;1.70;99.90;;;;;;5060715;28;20232;-71
2021/04/06 03:11:45;;;;;;;13.65;2.13;;;1.80;99.90;;;;;;5065124;28;20297;-70
2021/04/06 03:14:30;;;;;;;8.60;2.20;;;1.80;99.90;;;;;;5059673;28;20691;-70
2021/04/06 03:17:15;;;;;;;6.13;2.30;;;1.80;99.90;;;;;;5063023;28;20200;-71
2021/04/06 03:20:01;;;;;;;7.70;2.50;;;1.80;99.90;;;;;;5061998;28;21073;-71
2021/04/06 03:22:47;;;;;;;12.90;2.55;;;1.90;99.90;;;;;;5063134;28;20331;-71
2021/04/06 03:25:34;;;;;;;11.98;2.90;;;1.90;99.90;;;;;;5058096;28;20292;-71
2021/04/06 03:28:20;;;;;;;6.25;1.95;;;1.90;99.90;;;;;;5055579;28;20340;-71
2021/04/06 03:31:12;;;;;;;4.90;2.03;;;1.90;99.90;;;;;;5062739;28;20243;-71
2021/04/06 03:33:59;;;;;;;5.28;1.92;;;1.90;99.90;;;;;;5062047;28;20288;-69
2021/04/06 03:36:44;;;;;;;5.90;2.88;;;1.90;99.90;;;;;;5059505;28;20205;-69
2021/04/06 03:39:32;;;;;;;6.57;2.90;;;1.90;99.90;;;;;;5060185;28;20219;-69
2021/04/06 03:42:23;;;;;;;7.35;2.33;;;1.90;99.90;;;;;;5059908;28;20265;-71
2021/04/06 03:45:10;;;;;;;8.07;2.42;;;1.80;99.90;;;;;;5061690;28;20259;-69
2021/04/06 03:47:58;;;;;;;12.63;2.65;;;1.90;99.90;;;;;;5058390;28;20408;-69
2021/04/06 03:50:43;;;;;;;4.50;2.22;;;2.00;99.90;;;;;;5064458;28;20292;-69
2021/04/06 03:53:40;;;;;;;16.63;3.33;;;2.00;99.90;;;;;;5062147;28;20228;-70
2021/04/06 03:56:33;;;;;;;10.23;2.80;;;2.00;99.90;;;;;;5062835;28;20232;-69
2021/04/06 03:59:21;;;;;;;5.57;2.50;;;2.00;99.90;;;;;;5065727;28;20263;-71
2021/04/06 04:02:06;;;;;;;11.20;2.80;;;2.10;99.90;;;;;;5060978;28;20547;-70
2021/04/06 04:04:52;;;;;;;6.18;2.50;;;2.00;99.90;;;;;;5062181;28;20203;-70
2021/04/06 04:07:38;;;;;;;9.10;3.20;;;2.00;99.90;;;;;;5061692;28;20689;-71
2021/04/06 04:10:23;;;;;;;8.13;2.90;;;1.90;99.90;;;;;;5064455;28;20197;-71
2021/04/06 04:13:10;;;;;;;7.07;2.85;;;1.80;99.90;;;;;;5067823;28;20712;-72
2021/04/06 04:15:55;;;;;;;6.47;2.28;;;1.80;99.90;;;;;;5063093;28;20437;-71
2021/04/06 04:18:40;;;;;;;11.90;2.90;;;1.70;99.90;;;;;;5058124;28;20232;-70
2021/04/06 04:21:25;;;;;;;7.47;2.55;;;1.80;99.90;;;;;;5062848;28;20270;-70
2021/04/06 04:24:11;;;;;;;9.82;2.35;;;1.80;99.90;;;;;;5060956;28;20243;-71
2021/04/06 04:26:56;;;;;;;5.93;3.03;;;1.90;99.90;;;;;;5061642;28;20201;-70
2021/04/06 04:29:42;;;;;;;11.45;3.20;;;2.00;99.90;;;;;;5061971;28;20303;-71
2021/04/06 04:32:27;;;;;;;6.90;2.83;;;1.80;99.90;;;;;;5056448;28;20223;-71
2021/04/06 04:35:13;;;;;;;9.52;2.90;;;1.70;99.90;;;;;;5066429;28;20722;-71
2021/04/06 04:37:58;;;;;;;8.75;2.60;;;1.80;99.90;;;;;;5062420;28;20208;-71
2021/04/06 04:40:44;;;;;;;5.15;2.60;;;1.90;99.90;;;;;;5062153;28;20228;-70
2021/04/06 04:43:29;;;;;;;7.15;2.25;;;1.90;99.90;;;;;;5064227;28;20301;-71
2021/04/06 04:46:15;;;;;;;11.40;3.50;;;1.70;99.90;;;;;;5061132;28;20208;-69
2021/04/06 04:49:00;;;;;;;6.75;2.83;;;1.80;99.90;;;;;;5064912;28;20338;-70
2021/04/06 04:51:45;;;;;;;15.55;2.70;;;1.90;99.90;;;;;;5064103;28;20207;-70
2021/04/06 04:54:30;;;;;;;10.02;3.33;;;2.10;99.90;;;;;;5061313;28;20199;-70
2021/04/06 04:57:15;;;;;;;18.30;4.05;;;2.00;99.90;;;;;;5058718;28;20267;-70
2021/04/06 05:00:00;;;;;;;16.88;5.03;;;1.90;99.90;;;;;;5053643;28;20256;-70
2021/04/06 05:02:46;;;;;;;13.98;6.90;;;2.00;99.90;;;;;;5057529;28;20223;-71
2021/04/06 05:05:32;;;;;;;9.18;4.03;;;1.90;99.90;;;;;;5062048;28;20200;-70
2021/04/06 05:08:17;;;;;;;8.02;2.60;;;2.00;99.90;;;;;;5059530;28;20197;-70
2021/04/06 05:11:02;;;;;;;23.77;8.30;;;2.10;99.90;;;;;;5058618;28;20216;-69
2021/04/06 05:13:47;;;;;;;13.10;4.55;;;2.00;99.90;;;;;;5066389;28;20235;-71
2021/04/06 05:16:32;;;;;;;7.82;3.33;;;2.00;99.90;;;;;;5062070;28;20255;-71
2021/04/06 05:19:18;;;;;;;6.35;3.10;;;1.90;99.90;;;;;;5056534;28;20224;-71
2021/04/06 05:22:03;;;;;;;18.85;6.07;;;1.90;99.90;;;;;;5055290;28;20267;-70
2021/04/06 05:24:49;;;;;;;19.00;3.90;;;1.90;99.90;;;;;;5060577;28;20698;-71
2021/04/06 05:27:34;;;;;;;13.07;3.67;;;1.90;99.90;;;;;;5064144;28;20199;-69
2021/04/06 05:30:20;;;;;;;9.90;3.60;;;1.90;99.90;;;;;;5056883;28;20207;-70
2021/04/06 05:33:05;;;;;;;11.50;4.43;;;1.90;99.90;;;;;;5055213;28;20256;-70
2021/04/06 05:35:52;;;;;;;7.00;3.80;;;2.10;99.90;;;;;;5058948;28;20204;-70
2021/04/06 05:38:37;;;;;;;11.52;3.80;;;2.20;99.90;;;;;;5061915;28;20690;-71
2021/04/06 05:41:24;;;;;;;9.75;3.55;;;2.10;99.90;;;;;;5058842;28;20216;-69
2021/04/06 05:44:10;;;;;;;10.95;4.10;;;2.10;99.90;;;;;;5061298;28;20314;-69
2021/04/06 05:47:00;;;;;;;14.93;4.88;;;2.10;99.90;;;;;;5060362;28;20698;-71
2021/04/06 05:49:46;;;;;;;16.88;3.10;;;1.90;99.90;;;;;;5053901;28;20751;-70
2021/04/06 05:52:32;;;;;;;7.97;3.35;;;1.90;99.90;;;;;;5058939;28;20224;-70
2021/04/06 05:55:18;;;;;;;11.57;3.45;;;1.80;99.90;;;;;;5058424;28;20255;-70
2021/04/06 05:58:03;;;;;;;7.70;3.40;;;1.70;99.90;;;;;;5054524;28;20271;-71
2021/04/06 06:00:49;;;;;;;12.00;3.13;;;1.80;99.90;;;;;;5056021;28;20329;-71
2021/04/06 06:03:34;;;;;;;14.68;3.72;;;1.80;99.90;;;;;;5059640;28;20224;-70
2021/04/06 06:06:19;;;;;;;9.68;3.40;;;2.00;99.90;;;;;;5057847;28;20247;-70
2021/04/06 06:09:09;;;;;;;11.27;3.20;;;2.10;99.90;;;;;;5052405;28;20256;-70
2021/04/06 06:12:00;;;;;;;8.10;3.90;;;2.10;99.90;;;;;;5066262;28;20235;-71
2021/04/06 06:14:47;;;;;;;7.75;3.58;;;2.20;99.90;;;;;;5063226;28;20212;-70
2021/04/06 06:17:32;;;;;;;13.05;4.10;;;2.20;99.90;;;;;;5056976;28;20230;-69
2021/04/06 06:20:18;;;;;;;12.57;3.00;;;2.10;99.90;;;;;;5057689;28;20227;-71
2021/04/06 06:23:20;;;;;;;18.40;4.10;;;2.20;99.90;;;;;;5063673;28;20282;-71
2021/04/06 06:26:17;;;;;;;8.57;3.78;;;2.20;99.90;;;;;;5057326;28;20211;-70
2021/04/06 06:29:11;;;;;;;16.10;4.18;;;2.10;99.90;;;;;;5053620;28;20264;-71
2021/04/06 06:31:58;;;;;;;14.43;4.22;;;1.90;99.90;;;;;;5060282;28;20197;-70
2021/04/06 06:34:44;;;;;;;13.15;3.75;;;1.90;99.90;;;;;;5060739;28;20780;-71
2021/04/06 06:37:29;;;;;;;15.15;3.60;;;1.90;99.90;;;;;;5060242;28;20375;-70
2021/04/06 06:40:24;;;;;;;7.35;3.33;;;2.00;99.90;;;;;;5064358;28;20661;-70
2021/04/06 06:43:13;;;;;;;7.70;3.33;;;1.90;99.90;;;;;;5058778;28;20275;-70
2021/04/06 06:45:58;;;;;;;6.90;3.40;;;2.00;99.90;;;;;;5063167;28;20281;-68
2021/04/06 06:48:53;;;;;;;11.98;4.00;;;2.00;99.90;;;;;;5067020;28;20212;-69
2021/04/06 06:51:40;;;;;;;7.88;4.57;;;2.00;99.90;;;;;;5058124;28;20721;-70
2021/04/06 06:54:38;;;;;;;7.05;3.63;;;1.90;99.90;;;;;;5061167;28;20766;-70
2021/04/06 06:57:28;;;;;;;16.13;3.60;;;1.90;99.90;;;;;;5061893;28;20219;-70
2021/04/06 07:00:17;;;;;;;15.65;4.30;;;2.00;99.90;;;;;;5061374;28;20223;-70
2021/04/06 07:03:14;;;;;;;8.10;3.72;;;1.90;99.90;;;;;;5061232;28;20306;-70
2021/04/06 07:06:20;;;;;;;12.23;3.67;;;2.00;99.90;;;;;;5065040;28;20219;-71
2021/04/06 07:09:22;;;;;;;12.80;4.25;;;2.20;99.90;;;;;;5066259;28;20203;-71
2021/04/06 07:12:09;;;;;;;19.90;3.88;;;2.30;99.90;;;;;;5060967;28;20203;-72
2021/04/06 07:14:55;;;;;;;11.93;4.00;;;2.30;99.90;;;;;;5063173;28;20200;-70
2021/04/06 07:17:43;;;;;;;12.00;3.83;;;2.30;99.90;;;;;;5070564;28;20203;-68
2021/04/06 07:20:31;;;;;;;19.30;3.95;;;2.30;99.90;;;;;;5065869;28;20271;-71
2021/04/06 07:23:23;;;;;;;10.15;3.80;;;2.40;99.90;;;;;;5063908;28;20224;-70
2021/04/06 07:26:11;;;;;;;14.07;4.90;;;2.30;99.90;;;;;;5055079;28;20200;-69
2021/04/06 07:28:57;;;;;;;11.68;4.43;;;2.50;99.90;;;;;;5064710;28;20262;-70
2021/04/06 07:31:42;;;;;;;11.57;3.65;;;2.40;99.90;;;;;;5065391;28;20705;-71
2021/04/06 07:34:29;;;;;;;8.13;3.85;;;2.60;99.90;;;;;;5061717;28;20204;-70
2021/04/06 07:37:14;;;;;;;10.05;4.43;;;2.60;99.90;;;;;;5059197;28;20231;-71
2021/04/06 07:40:04;;;;;;;9.10;3.63;;;2.70;99.90;;;;;;5059243;28;20219;-70
2021/04/06 07:42:49;;;;;;;13.88;4.70;;;2.60;99.90;;;;;;5064393;28;20236;-69
2021/04/06 07:45:53;;;;;;;12.45;5.10;;;2.70;99.90;;;;;;5065013;28;20728;-69
2021/04/06 07:48:48;;;;;;;9.43;4.25;;;2.60;99.90;;;;;;5061526;28;20200;-71
2021/04/06 07:51:39;;;;;;;14.40;4.40;;;2.60;99.90;;;;;;5055562;28;20208;-73
2021/04/06 07:54:42;;;;;;;16.40;4.93;;;2.70;99.90;;;;;;5064298;28;20202;-71
2021/04/06 07:57:43;;;;;;;12.57;4.07;;;2.70;99.90;;;;;;5056233;28;20204;-70
2021/04/06 08:00:50;;;;;;;9.68;4.10;;;2.90;99.90;;;;;;5064097;28;20266;-71
2021/04/06 08:04:01;;;;;;;16.58;4.20;;;2.90;99.90;;;;;;5067373;28;20697;-71
2021/04/06 08:06:48;;;;;;;16.88;5.32;;;3.00;99.90;;;;;;5060577;28;20254;-72
2021/04/06 08:09:43;;;;;;;11.73;4.20;;;3.10;99.90;;;;;;5062187;28;20221;-70
2021/04/06 08:12:31;;;;;;;12.48;4.90;;;3.10;99.90;;;;;;5062417;28;20220;-69
2021/04/06 08:15:19;;;;;;;7.82;3.78;;;3.20;99.90;;;;;;5065382;28;20728;-70
2021/04/06 08:18:06;;;;;;;9.15;3.45;;;3.40;99.90;;;;;;5060189;28;20220;-70
2021/04/06 08:21:07;;;;;;;9.38;3.83;;;3.60;99.90;;;;;;5064395;28;20766;-70
2021/04/06 08:23:53;;;;;;;8.80;4.83;;;3.80;99.90;;;;;;5061260;28;20226;-71
2021/04/06 08:26:39;;;;;;;19.23;5.57;;;3.90;99.90;;;;;;5061026;28;20443;-70
2021/04/06 08:29:29;;;;;;;8.95;4.55;;;3.90;99.90;;;;;;5066910;28;20645;-71
2021/04/06 08:32:16;;;;;;;9.20;4.53;;;3.90;99.90;;;;;;5065744;28;20675;-71
2021/04/06 08:35:01;;;;;;;9.73;4.47;;;3.80;99.90;;;;;;5060141;28;20446;-71
2021/04/06 08:37:47;;;;;;;13.35;5.18;;;3.70;99.90;;;;;;5062329;28;20211;-70
2021/04/06 08:40:45;;;;;;;8.13;3.92;;;3.70;99.90;;;;;;5066244;28;20614;-70
2021/04/06 08:43:33;;;;;;;14.88;5.07;;;3.70;99.90;;;;;;5063401;28;20248;-69
2021/04/06 08:46:27;;;;;;;9.70;5.97;;;3.70;99.90;;;;;;5064563;28;20776;-70
2021/04/06 08:49:14;;;;;;;10.25;4.18;;;3.70;99.90;;;;;;5060235;28;20199;-71
2021/04/06 08:52:00;;;;;;;5.60;3.90;;;3.80;99.90;;;;;;5059484;28;20203;-70
2021/04/06 08:54:46;;;;;;;12.13;3.53;;;3.90;99.90;;;;;;5058851;28;20237;-70
2021/04/06 08:57:32;;;;;;;17.17;4.90;;;4.00;99.90;;;;;;5061855;28;20554;-69
2021/04/06 09:00:18;;;;;;;13.63;3.95;;;4.10;99.90;;;;;;5058127;28;20629;-69
2021/04/06 09:03:06;;;;;;;14.55;4.57;;;4.20;99.90;;;;;;5053380;28;20235;-72
2021/04/06 09:06:03;;;;;;;8.77;4.67;;;4.20;99.90;;;;;;5055770;28;20235;-71
2021/04/06 09:08:50;;;;;;;8.67;3.97;;;4.20;99.90;;;;;;5059677;28;20455;-71
2021/04/06 09:11:37;;;;;;;11.23;3.85;;;4.10;99.90;;;;;;5063026;28;20512;-71
2021/04/06 09:14:25;;;;;;;9.43;4.57;;;4.20;99.90;;;;;;5057594;28;20252;-72
2021/04/06 09:17:10;;;;;;;12.93;4.70;;;4.10;99.90;;;;;;5058706;28;20691;-71
2021/04/06 09:19:56;;;;;;;7.63;4.43;;;4.00;99.90;;;;;;5060793;28;20482;-72
2021/04/06 09:22:45;;;;;;;8.73;3.90;;;4.10;99.90;;;;;;5053770;28;20445;-71
2021/04/06 09:25:30;;;;;;;10.98;4.55;;;4.20;99.90;;;;;;5059750;28;20679;-72
2021/04/06 09:28:15;;;;;;;11.73;4.20;;;4.30;99.90;;;;;;5062380;28;20628;-71
2021/04/06 09:31:06;;;;;;;8.10;4.20;;;4.30;99.90;;;;;;5061094;28;20460;-72
2021/04/06 09:33:51;;;;;;;12.60;4.00;;;4.30;99.90;;;;;;5059015;28;20563;-71
2021/04/06 09:36:38;;;;;;;10.07;4.30;;;4.30;99.90;;;;;;5065959;28;20529;-70
2021/04/06 09:39:25;;;;;;;15.70;4.03;;;4.30;99.90;;;;;;5066846;28;20445;-71
2021/04/06 09:42:10;;;;;;;7.63;3.53;;;4.40;99.90;;;;;;5059964;28;20553;-71
2021/04/06 09:44:56;;;;;;;9.80;3.60;;;4.40;99.90;;;;;;5064051;28;20558;-71
2021/04/06 09:47:41;;;;;;;12.73;4.03;;;4.40;99.90;;;;;;5062502;28;20421;-71
2021/04/06 09:50:27;;;;;;;12.20;3.77;;;4.40;99.90;;;;;;5065824;28;20877;-70
2021/04/06 09:53:17;;;;;;;8.30;4.53;;;4.30;99.90;;;;;;5067427;28;20911;-70
2021/04/06 09:56:02;;;;;;;14.52;5.35;;;4.10;99.90;;;;;;5055306;28;20660;-71
2021/04/06 09:58:48;;;;;;;14.52;5.13;;;3.80;99.90;;;;;;5062606;28;20232;-70
2021/04/06 10:01:33;;;;;;;14.50;4.60;;;3.70;99.90;;;;;;5055317;28;20305;-71
2021/04/06 10:04:34;;;;;;;14.20;5.47;;;3.90;99.90;;;;;;5055324;28;20279;-71
2021/04/06 10:07:23;;;;;;;15.32;6.28;;;3.90;99.90;;;;;;5056952;28;20262;-71
2021/04/06 10:10:19;;;;;;;15.63;6.30;;;3.90;99.90;;;;;;5056576;28;20209;-70
2021/04/06 10:13:06;;;;;;;13.65;5.97;;;3.60;99.90;;;;;;5056327;28;20224;-72
2021/04/06 10:16:04;;;;;;;15.73;4.57;;;3.70;99.90;;;;;;5059641;28;20204;-70
2021/04/06 10:18:49;;;;;;;10.30;5.50;;;3.50;99.90;;;;;;5057721;28;20597;-70
2021/04/06 10:21:35;;;;;;;8.38;5.10;;;3.60;99.90;;;;;;5052739;28;20682;-71
2021/04/06 10:24:26;;;;;;;7.93;4.60;;;3.40;99.90;;;;;;5059238;28;20229;-71
2021/04/06 10:27:16;;;;;;;12.30;5.10;;;3.30;99.90;;;;;;5057104;28;20529;-71
2021/04/06 10:30:07;;;;;;;11.63;5.40;;;3.50;99.90;;;;;;5058727;28;20247;-72
2021/04/06 10:33:04;;;;;;;9.93;5.00;;;3.80;99.90;;;;;;5058095;28;20232;-71
2021/04/06 10:35:52;;;;;;;12.93;4.30;;;4.00;99.90;;;;;;5053773;28;20213;-69
2021/04/06 10:38:40;;;;;;;12.85;4.40;;;4.00;99.90;;;;;;5064337;28;20409;-71
2021/04/06 10:41:26;;;;;;;11.55;4.63;;;4.40;99.90;;;;;;5061702;28;20287;-70
2021/04/06 10:44:11;;;;;;;11.65;4.22;;;4.90;99.90;;;;;;5058215;28;20266;-71
2021/04/06 10:46:57;;;;;;;19.00;8.63;;;5.40;99.90;;;;;;5059762;28;20307;-71
2021/04/06 10:49:53;;;;;;;7.60;3.43;;;5.70;99.90;;;;;;5056507;28;20472;-70
2021/04/06 10:52:38;;;;;;;8.47;3.50;;;6.00;99.90;;;;;;5057368;28;20482;-72
2021/04/06 10:55:35;;;;;;;7.80;3.30;;;6.30;99.90;;;;;;5057613;28;20988;-72
2021/04/06 10:58:29;;;;;;;7.90;3.50;;;6.50;99.90;;;;;;5056194;28;20466;-71
2021/04/06 11:01:17;;;;;;;9.10;3.67;;;6.80;99.90;;;;;;5060342;28;20562;-72
2021/04/06 11:04:10;;;;;;;6.25;2.90;;;6.70;99.90;;;;;;5060230;28;20497;-71
2021/04/06 11:06:58;;;;;;;10.07;3.27;;;6.80;99.90;;;;;;5065012;28;20204;-70
2021/04/06 11:09:45;;;;;;;10.73;3.70;;;6.90;99.90;;;;;;5052717;28;20462;-72
2021/04/06 11:12:31;;;;;;;7.20;3.60;;;6.70;99.90;;;;;;5063691;28;20828;-70
2021/04/06 11:15:16;;;;;;;9.20;3.63;;;6.50;99.90;;;;;;5061817;28;20735;-72
2021/04/06 11:18:01;;;;;;;10.13;3.27;;;6.40;99.90;;;;;;5063159;28;20972;-72
2021/04/06 11:20:46;;;;;;;16.23;3.60;;;6.20;99.70;;;;;;5053780;28;20855;-72
2021/04/06 11:23:32;;;;;;;6.13;3.03;;;6.20;99.90;;;;;;5060585;28;21083;-72
2021/04/06 11:26:17;;;;;;;5.27;2.67;;;6.20;99.90;;;;;;5055692;28;20451;-72
2021/04/06 11:29:05;;;;;;;11.93;3.70;;;6.00;99.90;;;;;;5063453;28;20535;-71
2021/04/06 11:31:53;;;;;;;7.50;3.30;;;5.70;99.90;;;;;;5064092;28;20450;-71
2021/04/06 11:34:39;;;;;;;8.00;3.25;;;5.60;99.50;;;;;;5059688;28;20507;-72
2021/04/06 11:37:25;;;;;;;8.75;3.40;;;5.40;99.90;;;;;;5058609;28;20665;-73
2021/04/06 11:40:10;;;;;;;7.30;2.93;;;5.30;99.90;;;;;;5066658;28;20236;-72
2021/04/06 11:42:56;;;;;;;4.73;2.80;;;5.20;99.90;;;;;;5066733;28;20979;-71
2021/04/06 11:45:42;;;;;;;11.20;3.33;;;5.40;99.90;;;;;;5059790;28;21053;-72
2021/04/06 11:48:27;;;;;;;9.73;3.20;;;5.80;99.90;;;;;;5060245;28;20212;-72
2021/04/06 11:51:13;;;;;;;4.63;2.00;;;6.00;99.90;;;;;;5058015;28;20203;-73
2021/04/06 11:53:58;;;;;;;7.40;2.53;;;5.90;99.90;;;;;;5062160;28;20339;-72
2021/04/06 11:56:44;;;;;;;4.40;1.95;;;5.60;99.90;;;;;;5061670;28;20232;-71
2021/04/06 11:59:30;;;;;;;4.20;1.50;;;5.70;99.90;;;;;;5058381;28;20256;-70
2021/04/06 12:02:16;;;;;;;5.60;2.00;;;6.10;99.90;;;;;;5062627;28;20259;-72
2021/04/06 12:05:01;;;;;;;4.27;2.00;;;6.50;99.90;;;;;;5060872;28;20204;-71
2021/04/06 12:07:46;;;;;;;6.20;1.53;;;6.70;99.90;;;;;;5058499;28;20422;-71
2021/04/06 12:10:32;;;;;;;6.30;2.77;;;7.00;99.90;;;;;;5061994;28;20498;-72
2021/04/06 12:13:18;;;;;;;2.87;1.40;;;6.90;99.90;;;;;;5067902;28;20485;-73
2021/04/06 12:16:03;;;;;;;6.20;1.60;;;6.70;99.90;;;;;;5060571;28;20516;-73
2021/04/06 12:18:50;;;;;;;8.00;1.80;;;6.60;99.90;;;;;;5056848;28;20960;-73
2021/04/06 12:21:35;;;;;;;3.10;1.63;;;6.20;99.90;;;;;;5055514;28;20467;-72
2021/04/06 12:24:20;;;;;;;5.00;1.70;;;6.10;99.90;;;;;;5064620;28;20488;-72
2021/04/06 12:27:06;;;;;;;4.37;2.27;;;5.80;99.90;;;;;;5064428;28;20477;-73
2021/04/06 12:29:51;;;;;;;2.77;1.80;;;5.20;99.90;;;;;;5062485;28;20506;-72
2021/04/06 12:32:36;;;;;;;6.18;2.10;;;5.00;99.90;;;;;;5066039;28;20493;-71
2021/04/06 12:35:22;;;;;;;6.67;2.00;;;5.10;99.90;;;;;;5058845;28;20205;-72
2021/04/06 12:38:08;;;;;;;3.70;1.90;;;5.60;99.90;;;;;;5064070;28;20461;-73
2021/04/06 12:40:54;;;;;;;8.57;2.00;;;5.90;99.90;;;;;;5059006;28;20481;-72
2021/04/06 12:43:40;;;;;;;8.87;2.00;;;6.00;99.90;;;;;;5061097;28;20488;-72
2021/04/06 12:46:25;;;;;;;4.17;1.73;;;6.00;99.90;;;;;;5058876;28;20530;-71
2021/04/06 12:49:10;;;;;;;6.07;2.17;;;6.00;99.90;;;;;;5059730;28;20660;-73
2021/04/06 12:51:56;;;;;;;5.63;2.33;;;5.60;99.90;;;;;;5063400;28;20413;-71
2021/04/06 12:54:41;;;;;;;5.72;2.65;;;5.60;99.90;;;;;;5054312;28;21531;-71
2021/04/06 12:57:26;;;;;;;4.43;2.65;;;5.50;99.90;;;;;;5061148;28;20729;-72
2021/04/06 13:00:12;;;;;;;4.60;2.50;;;5.70;99.90;;;;;;5063363;28;20660;-72
2021/04/06 13:02:58;;;;;;;7.30;3.10;;;5.50;99.90;;;;;;5059468;28;20579;-72
2021/04/06 13:05:42;;;;;;;10.73;3.47;;;5.70;99.90;;;;;;5061900;28;20878;-72
2021/04/06 13:08:28;;;;;;;13.63;3.33;;;6.00;99.90;;;;;;5058152;28;20483;-72
2021/04/06 13:11:14;;;;;;;9.67;2.20;;;6.50;99.90;;;;;;5066335;28;20567;-71
2021/04/06 13:14:01;;;;;;;6.27;2.57;;;6.90;99.90;;;;;;5056720;28;20473;-73
2021/04/06 13:16:46;;;;;;;4.97;2.20;;;6.80;99.90;;;;;;5062028;28;20585;-71
2021/04/06 13:19:31;;;;;;;4.53;1.93;;;6.70;99.90;;;;;;5058742;28;20459;-71
2021/04/06 13:22:17;;;;;;;5.93;2.60;;;6.50;99.90;;;;;;5062463;28;20590;-71
2021/04/06 13:25:04;;;;;;;6.10;2.43;;;6.40;99.90;;;;;;5063753;28;21175;-69
2021/04/06 13:27:49;;;;;;;6.63;1.67;;;6.50;99.90;;;;;;5061581;28;20533;-72
2021/04/06 13:30:34;;;;;;;3.97;2.00;;;6.60;99.90;;;;;;5062764;28;20558;-72
2021/04/06 13:33:20;;;;;;;6.80;1.53;;;6.90;99.90;;;;;;5058825;28;20475;-72
2021/04/06 13:36:05;;;;;;;3.23;1.27;;;7.20;97.20;;;;;;5055542;28;20442;-72
2021/04/06 13:38:51;;;;;;;2.93;1.73;;;7.60;96.70;;;;;;5062115;28;20447;-72
2021/04/06 13:41:37;;;;;;;5.07;2.00;;;7.70;90.40;;;;;;5061993;28;20473;-72
2021/04/06 13:44:23;;;;;;;2.00;1.27;;;7.60;79.30;;;;;;5059856;28;21002;-72
2021/04/06 13:47:08;;;;;;;6.03;1.60;;;7.90;88.30;;;;;;5058888;28;20446;-71
2021/04/06 13:49:53;;;;;;;4.10;1.30;;;8.30;79.30;;;;;;5062970;28;20845;-72
2021/04/06 13:52:38;;;;;;;3.70;1.83;;;8.40;75.40;;;;;;5064316;28;20455;-72
2021/04/06 13:55:23;;;;;;;3.83;1.53;;;8.30;71.50;;;;;;5067512;28;20498;-72
2021/04/06 13:58:11;;;;;;;2.60;1.80;;;8.10;73.10;;;;;;5060774;28;20991;-72
2021/04/06 14:00:56;;;;;;;4.10;1.60;;;7.80;64.80;;;;;;5062597;28;20498;-70
2021/04/06 14:03:42;;;;;;;2.30;1.43;;;7.60;64.10;;;;;;5057489;28;20453;-70
2021/04/06 14:06:27;;;;;;;2.53;1.23;;;7.40;59.00;;;;;;5063312;28;20463;-69
2021/04/06 14:09:12;;;;;;;3.23;1.53;;;7.20;58.60;;;;;;5057109;28;20455;-69
2021/04/06 14:11:57;;;;;;;2.40;1.77;;;7.10;59.60;;;;;;5066763;28;20417;-70
2021/04/06 14:14:43;;;;;;;5.63;1.87;;;7.10;62.60;;;;;;5056366;28;20443;-70
2021/04/06 14:17:28;;;;;;;3.87;1.60;;;7.50;63.40;;;;;;5053573;28;20449;-69
2021/04/06 14:20:16;;;;;;;2.90;1.63;;;7.80;59.40;;;;;;5062176;28;20957;-70
2021/04/06 14:23:04;;;;;;;1.83;1.10;;;8.10;53.10;;;;;;5053016;28;20512;-71
2021/04/06 14:25:50;;;;;;;2.63;1.33;;;8.40;52.10;;;;;;5059205;28;20938;-71
2021/04/06 14:28:36;;;;;;;2.67;1.00;;;8.60;43.70;;;;;;5058376;28;20964;-69
2021/04/06 14:31:25;;;;;;;3.73;1.23;;;9.10;45.50;;;;;;5064876;28;20451;-70
2021/04/06 14:34:10;;;;;;;3.50;1.70;;;9.20;42.10;;;;;;5056498;28;20499;-69
2021/04/06 14:36:55;;;;;;;2.37;1.17;;;8.90;40.40;;;;;;5054030;28;20510;-70
2021/04/06 14:39:40;;;;;;;2.87;1.23;;;8.40;41.90;;;;;;5060454;28;20509;-70